sensor_id;sensor_type;location;lat;lon;timestamp;pressure;altitude;pressure_sealevel;temperature;humidity
250;BME280;109;19.806;-70.704;2024-03-06T00:02:06;101331.53;;;25.67;46.62
250;BME280;109;19.806;-70.704;2024-03-06T00:04:33;101336.63;;;25.72;46.21
250;BME280;109;19.806;-70.704;2024-03-06T00:06:59;101341.28;;;25.70;46.66
250;BME280;109;19.806;-70.704;2024-03-06T00:09:26;101344.28;;;25.92;46.40
250;BME280;109;19.806;-70.704;2024-03-06T00:11:54;101349.34;;;26.24;45.63
250;BME280;109;19.806;-70.704;2024-03-06T00:14:20;101341.38;;;26.35;45.00
250;BME280;109;19.806;-70.704;2024-03-06T00:16:50;101343.69;;;26.14;45.58
250;BME280;109;19.806;-70.704;2024-03-06T00:19:18;101348.06;;;26.42;44.89
250;BME280;109;19.806;-70.704;2024-03-06T00:21:51;101349.13;;;26.27;45.10
250;BME280;109;19.806;-70.704;2024-03-06T00:24:18;101356.09;;;26.04;45.53
250;BME280;109;19.806;-70.704;2024-03-06T00:26:45;101355.03;;;26.19;45.02
250;BME280;109;19.806;-70.704;2024-03-06T00:29:14;101357.59;;;26.35;45.02
250;BME280;109;19.806;-70.704;2024-03-06T00:31:47;101368.66;;;26.17;45.12
250;BME280;109;19.806;-70.704;2024-03-06T00:34:26;101358.50;;;26.21;44.91
250;BME280;109;19.806;-70.704;2024-03-06T00:36:53;101363.09;;;26.33;44.80
250;BME280;109;19.806;-70.704;2024-03-06T00:39:20;101370.97;;;26.36;44.78
250;BME280;109;19.806;-70.704;2024-03-06T00:41:46;101365.28;;;26.14;45.21
250;BME280;109;19.806;-70.704;2024-03-06T00:44:14;101374.91;;;26.18;44.81
250;BME280;109;19.806;-70.704;2024-03-06T00:46:41;101373.97;;;25.92;45.16
250;BME280;109;19.806;-70.704;2024-03-06T00:49:07;101384.00;;;26.17;45.26
250;BME280;109;19.806;-70.704;2024-03-06T00:51:33;101383.69;;;26.22;44.87
250;BME280;109;19.806;-70.704;2024-03-06T00:54:03;101388.03;;;26.24;44.63
250;BME280;109;19.806;-70.704;2024-03-06T00:56:30;101392.44;;;26.25;44.77
250;BME280;109;19.806;-70.704;2024-03-06T00:58:57;101403.91;;;26.29;44.66
250;BME280;109;19.806;-70.704;2024-03-06T01:01:23;101402.03;;;26.16;44.75
250;BME280;109;19.806;-70.704;2024-03-06T01:03:50;101409.81;;;26.21;44.68
250;BME280;109;19.806;-70.704;2024-03-06T01:06:16;101409.03;;;26.33;43.78
250;BME280;109;19.806;-70.704;2024-03-06T01:08:43;101400.19;;;26.17;44.46
250;BME280;109;19.806;-70.704;2024-03-06T01:11:11;101404.72;;;26.16;44.15
250;BME280;109;19.806;-70.704;2024-03-06T01:13:40;101413.91;;;26.14;44.15
250;BME280;109;19.806;-70.704;2024-03-06T01:16:07;101415.81;;;26.12;43.98
250;BME280;109;19.806;-70.704;2024-03-06T01:18:33;101420.94;;;26.16;43.98
250;BME280;109;19.806;-70.704;2024-03-06T01:21:00;101423.22;;;26.23;44.12
250;BME280;109;19.806;-70.704;2024-03-06T01:23:26;101425.63;;;26.00;43.84
250;BME280;109;19.806;-70.704;2024-03-06T01:25:52;101428.47;;;26.11;43.76
250;BME280;109;19.806;-70.704;2024-03-06T01:28:19;101426.59;;;25.99;43.98
250;BME280;109;19.806;-70.704;2024-03-06T01:30:45;101418.75;;;26.09;43.64
250;BME280;109;19.806;-70.704;2024-03-06T01:33:12;101417.47;;;26.14;43.53
250;BME280;109;19.806;-70.704;2024-03-06T01:35:39;101413.69;;;26.17;43.73
250;BME280;109;19.806;-70.704;2024-03-06T01:38:05;101415.03;;;26.24;43.42
250;BME280;109;19.806;-70.704;2024-03-06T01:40:31;101427.47;;;26.27;43.12
250;BME280;109;19.806;-70.704;2024-03-06T01:42:58;101428.91;;;26.32;43.16
250;BME280;109;19.806;-70.704;2024-03-06T01:45:24;101430.50;;;26.22;43.15
250;BME280;109;19.806;-70.704;2024-03-06T01:47:51;101430.84;;;26.30;43.32
250;BME280;109;19.806;-70.704;2024-03-06T01:50:18;101438.09;;;26.15;43.64
250;BME280;109;19.806;-70.704;2024-03-06T01:52:46;101442.28;;;26.07;43.82
250;BME280;109;19.806;-70.704;2024-03-06T01:55:13;101434.50;;;26.29;43.55
250;BME280;109;19.806;-70.704;2024-03-06T01:57:48;101436.06;;;26.19;43.29
250;BME280;109;19.806;-70.704;2024-03-06T02:00:15;101428.69;;;26.08;44.03
250;BME280;109;19.806;-70.704;2024-03-06T02:02:49;101431.94;;;26.13;43.63
250;BME280;109;19.806;-70.704;2024-03-06T02:05:16;101432.56;;;26.31;43.18
250;BME280;109;19.806;-70.704;2024-03-06T02:07:49;101438.28;;;26.27;43.93
250;BME280;109;19.806;-70.704;2024-03-06T02:10:18;101438.81;;;26.05;43.84
250;BME280;109;19.806;-70.704;2024-03-06T02:12:51;101429.69;;;26.20;43.23
250;BME280;109;19.806;-70.704;2024-03-06T02:15:19;101442.94;;;26.10;43.91
250;BME280;109;19.806;-70.704;2024-03-06T02:17:52;101447.84;;;25.91;43.69
250;BME280;109;19.806;-70.704;2024-03-06T02:20:25;101448.34;;;26.10;43.60
250;BME280;109;19.806;-70.704;2024-03-06T02:22:58;101450.69;;;26.02;44.23
250;BME280;109;19.806;-70.704;2024-03-06T02:25:25;101443.22;;;25.93;43.90
250;BME280;109;19.806;-70.704;2024-03-06T02:27:57;101453.19;;;26.05;43.80
250;BME280;109;19.806;-70.704;2024-03-06T02:30:24;101458.78;;;25.75;44.20
250;BME280;109;19.806;-70.704;2024-03-06T02:32:57;101452.63;;;26.00;43.91
250;BME280;109;19.806;-70.704;2024-03-06T02:35:38;101443.66;;;26.00;44.10
250;BME280;109;19.806;-70.704;2024-03-06T02:38:05;101438.69;;;25.94;43.95
250;BME280;109;19.806;-70.704;2024-03-06T02:40:38;101438.78;;;25.92;44.38
250;BME280;109;19.806;-70.704;2024-03-06T02:43:04;101445.25;;;25.90;43.94
250;BME280;109;19.806;-70.704;2024-03-06T02:45:37;101443.44;;;25.76;44.57
250;BME280;109;19.806;-70.704;2024-03-06T02:48:04;101447.50;;;25.69;44.22
250;BME280;109;19.806;-70.704;2024-03-06T02:50:37;101452.47;;;25.89;44.04
250;BME280;109;19.806;-70.704;2024-03-06T02:53:03;101451.25;;;25.80;44.45
250;BME280;109;19.806;-70.704;2024-03-06T02:55:36;101452.03;;;25.68;44.56
250;BME280;109;19.806;-70.704;2024-03-06T02:58:03;101452.31;;;25.78;44.16
250;BME280;109;19.806;-70.704;2024-03-06T03:00:36;101457.47;;;25.95;44.67
250;BME280;109;19.806;-70.704;2024-03-06T03:03:02;101457.09;;;25.87;44.06
250;BME280;109;19.806;-70.704;2024-03-06T03:05:36;101450.28;;;25.67;44.66
250;BME280;109;19.806;-70.704;2024-03-06T03:08:02;101452.22;;;25.65;44.71
250;BME280;109;19.806;-70.704;2024-03-06T03:10:36;101451.53;;;25.62;44.76
250;BME280;109;19.806;-70.704;2024-03-06T03:13:03;101450.84;;;25.87;44.33
250;BME280;109;19.806;-70.704;2024-03-06T03:15:37;101453.75;;;25.69;44.56
250;BME280;109;19.806;-70.704;2024-03-06T03:18:04;101443.59;;;25.73;44.97
250;BME280;109;19.806;-70.704;2024-03-06T03:20:37;101438.56;;;25.54;44.87
250;BME280;109;19.806;-70.704;2024-03-06T03:23:03;101436.72;;;25.55;45.10
250;BME280;109;19.806;-70.704;2024-03-06T03:25:39;101438.19;;;25.73;44.52
250;BME280;109;19.806;-70.704;2024-03-06T03:28:06;101444.69;;;25.70;44.84
250;BME280;109;19.806;-70.704;2024-03-06T03:30:38;101435.94;;;25.53;45.15
250;BME280;109;19.806;-70.704;2024-03-06T03:33:05;101433.63;;;25.46;44.70
250;BME280;109;19.806;-70.704;2024-03-06T03:35:45;101433.22;;;25.67;44.91
250;BME280;109;19.806;-70.704;2024-03-06T03:38:18;101427.84;;;25.53;44.83
250;BME280;109;19.806;-70.704;2024-03-06T03:40:44;101429.94;;;25.62;44.93
250;BME280;109;19.806;-70.704;2024-03-06T03:43:17;101432.38;;;25.52;44.83
250;BME280;109;19.806;-70.704;2024-03-06T03:45:43;101422.91;;;25.59;44.60
250;BME280;109;19.806;-70.704;2024-03-06T03:48:16;101424.16;;;25.68;44.67
250;BME280;109;19.806;-70.704;2024-03-06T03:50:42;101418.91;;;25.52;45.09
250;BME280;109;19.806;-70.704;2024-03-06T03:53:15;101420.28;;;25.72;45.08
250;BME280;109;19.806;-70.704;2024-03-06T03:55:41;101421.38;;;25.69;44.93
250;BME280;109;19.806;-70.704;2024-03-06T03:58:14;101423.31;;;25.67;45.00
250;BME280;109;19.806;-70.704;2024-03-06T04:00:40;101417.94;;;25.53;45.14
250;BME280;109;19.806;-70.704;2024-03-06T04:03:13;101410.25;;;25.74;44.67
250;BME280;109;19.806;-70.704;2024-03-06T04:05:39;101411.22;;;25.73;45.00
250;BME280;109;19.806;-70.704;2024-03-06T04:08:12;101411.16;;;25.60;45.04
250;BME280;109;19.806;-70.704;2024-03-06T04:10:39;101406.03;;;25.70;44.83
250;BME280;109;19.806;-70.704;2024-03-06T04:13:14;101413.16;;;25.71;45.06
250;BME280;109;19.806;-70.704;2024-03-06T04:15:40;101410.88;;;25.79;44.78
250;BME280;109;19.806;-70.704;2024-03-06T04:18:13;101406.00;;;25.84;44.90
250;BME280;109;19.806;-70.704;2024-03-06T04:20:40;101404.94;;;25.72;45.01
250;BME280;109;19.806;-70.704;2024-03-06T04:23:12;101409.31;;;25.61;45.19
250;BME280;109;19.806;-70.704;2024-03-06T04:25:38;101407.19;;;25.80;44.69
250;BME280;109;19.806;-70.704;2024-03-06T04:28:12;101407.75;;;25.85;44.62
250;BME280;109;19.806;-70.704;2024-03-06T04:30:39;101403.31;;;25.84;44.34
250;BME280;109;19.806;-70.704;2024-03-06T04:33:11;101399.31;;;25.63;45.18
250;BME280;109;19.806;-70.704;2024-03-06T04:35:51;101398.25;;;25.65;45.04
250;BME280;109;19.806;-70.704;2024-03-06T04:38:18;101392.94;;;25.64;45.07
250;BME280;109;19.806;-70.704;2024-03-06T04:40:51;101392.31;;;25.73;45.04
250;BME280;109;19.806;-70.704;2024-03-06T04:43:17;101383.97;;;25.77;44.34
250;BME280;109;19.806;-70.704;2024-03-06T04:45:50;101379.16;;;25.68;44.87
250;BME280;109;19.806;-70.704;2024-03-06T04:48:17;101373.38;;;25.60;44.85
250;BME280;109;19.806;-70.704;2024-03-06T04:50:50;101374.81;;;25.66;45.10
250;BME280;109;19.806;-70.704;2024-03-06T04:53:16;101362.47;;;25.76;44.66
250;BME280;109;19.806;-70.704;2024-03-06T04:55:49;101365.28;;;25.74;44.92
250;BME280;109;19.806;-70.704;2024-03-06T04:58:15;101366.06;;;25.62;44.87
250;BME280;109;19.806;-70.704;2024-03-06T05:00:48;101361.66;;;25.74;44.90
250;BME280;109;19.806;-70.704;2024-03-06T05:03:14;101357.94;;;25.35;45.29
250;BME280;109;19.806;-70.704;2024-03-06T05:05:47;101347.22;;;25.48;45.59
250;BME280;109;19.806;-70.704;2024-03-06T05:08:13;101344.84;;;25.70;44.94
250;BME280;109;19.806;-70.704;2024-03-06T05:10:46;101350.69;;;25.50;45.08
250;BME280;109;19.806;-70.704;2024-03-06T05:13:12;101347.53;;;25.43;45.28
250;BME280;109;19.806;-70.704;2024-03-06T05:15:46;101347.16;;;25.35;45.13
250;BME280;109;19.806;-70.704;2024-03-06T05:18:13;101348.78;;;25.24;45.36
250;BME280;109;19.806;-70.704;2024-03-06T05:20:45;101342.72;;;25.61;44.75
250;BME280;109;19.806;-70.704;2024-03-06T05:23:12;101338.41;;;25.59;44.51
250;BME280;109;19.806;-70.704;2024-03-06T05:25:46;101338.00;;;25.38;44.99
250;BME280;109;19.806;-70.704;2024-03-06T05:28:12;101331.59;;;25.53;44.76
250;BME280;109;19.806;-70.704;2024-03-06T05:30:45;101324.56;;;25.51;44.97
250;BME280;109;19.806;-70.704;2024-03-06T05:33:12;101323.34;;;25.42;45.09
250;BME280;109;19.806;-70.704;2024-03-06T05:35:45;101314.34;;;25.56;44.54
250;BME280;109;19.806;-70.704;2024-03-06T05:38:11;101315.66;;;25.63;44.88
250;BME280;109;19.806;-70.704;2024-03-06T05:40:44;101306.59;;;25.37;44.43
250;BME280;109;19.806;-70.704;2024-03-06T05:43:11;101291.66;;;25.58;44.52
250;BME280;109;19.806;-70.704;2024-03-06T05:45:44;101290.31;;;25.24;44.42
250;BME280;109;19.806;-70.704;2024-03-06T05:48:10;101292.28;;;25.49;44.07
250;BME280;109;19.806;-70.704;2024-03-06T05:50:43;101292.84;;;25.54;44.26
250;BME280;109;19.806;-70.704;2024-03-06T05:53:10;101286.78;;;25.51;44.39
250;BME280;109;19.806;-70.704;2024-03-06T05:55:43;101286.78;;;25.51;43.77
250;BME280;109;19.806;-70.704;2024-03-06T05:58:09;101281.31;;;25.52;44.25
250;BME280;109;19.806;-70.704;2024-03-06T06:00:42;101282.09;;;25.67;43.75
250;BME280;109;19.806;-70.704;2024-03-06T06:03:09;101273.22;;;25.52;44.30
250;BME280;109;19.806;-70.704;2024-03-06T06:05:44;101278.69;;;25.51;44.08
250;BME280;109;19.806;-70.704;2024-03-06T06:08:11;101269.53;;;25.53;44.10
250;BME280;109;19.806;-70.704;2024-03-06T06:10:44;101266.59;;;25.43;44.00
250;BME280;109;19.806;-70.704;2024-03-06T06:13:11;101258.81;;;25.39;44.37
250;BME280;109;19.806;-70.704;2024-03-06T06:15:44;101254.78;;;25.32;44.17
250;BME280;109;19.806;-70.704;2024-03-06T06:18:11;101250.06;;;25.35;44.23
250;BME280;109;19.806;-70.704;2024-03-06T06:20:43;101244.66;;;25.35;44.56
250;BME280;109;19.806;-70.704;2024-03-06T06:23:09;101236.03;;;25.30;44.43
250;BME280;109;19.806;-70.704;2024-03-06T06:25:42;101238.03;;;25.54;44.02
250;BME280;109;19.806;-70.704;2024-03-06T06:28:08;101236.56;;;25.35;44.33
250;BME280;109;19.806;-70.704;2024-03-06T06:30:42;101240.78;;;25.39;44.68
250;BME280;109;19.806;-70.704;2024-03-06T06:33:09;101234.00;;;25.46;44.55
250;BME280;109;19.806;-70.704;2024-03-06T06:35:49;101236.38;;;25.24;44.50
250;BME280;109;19.806;-70.704;2024-03-06T06:38:22;101237.75;;;25.31;44.82
250;BME280;109;19.806;-70.704;2024-03-06T06:40:48;101231.84;;;25.25;44.78
250;BME280;109;19.806;-70.704;2024-03-06T06:43:21;101230.53;;;25.18;44.81
250;BME280;109;19.806;-70.704;2024-03-06T06:45:48;101223.88;;;25.23;44.79
250;BME280;109;19.806;-70.704;2024-03-06T06:48:21;101223.72;;;25.12;44.44
250;BME280;109;19.806;-70.704;2024-03-06T06:50:48;101220.81;;;25.15;44.81
250;BME280;109;19.806;-70.704;2024-03-06T06:53:21;101214.81;;;25.24;44.84
250;BME280;109;19.806;-70.704;2024-03-06T06:55:47;101216.50;;;25.13;44.89
250;BME280;109;19.806;-70.704;2024-03-06T06:58:20;101215.25;;;25.18;45.00
250;BME280;109;19.806;-70.704;2024-03-06T07:00:46;101218.56;;;25.22;44.94
250;BME280;109;19.806;-70.704;2024-03-06T07:03:19;101213.03;;;25.10;45.00
250;BME280;109;19.806;-70.704;2024-03-06T07:05:47;101212.13;;;25.24;45.07
250;BME280;109;19.806;-70.704;2024-03-06T07:08:20;101211.88;;;25.15;44.85
250;BME280;109;19.806;-70.704;2024-03-06T07:10:46;101213.69;;;25.14;44.83
250;BME280;109;19.806;-70.704;2024-03-06T07:13:19;101216.41;;;25.14;44.89
250;BME280;109;19.806;-70.704;2024-03-06T07:15:46;101206.00;;;25.08;45.00
250;BME280;109;19.806;-70.704;2024-03-06T07:18:18;101204.97;;;24.96;45.65
250;BME280;109;19.806;-70.704;2024-03-06T07:20:44;101203.09;;;25.11;45.18
250;BME280;109;19.806;-70.704;2024-03-06T07:23:18;101202.53;;;25.06;45.22
250;BME280;109;19.806;-70.704;2024-03-06T07:25:44;101196.50;;;25.02;45.27
250;BME280;109;19.806;-70.704;2024-03-06T07:28:17;101188.63;;;24.99;45.51
250;BME280;109;19.806;-70.704;2024-03-06T07:30:44;101193.50;;;25.07;45.43
250;BME280;109;19.806;-70.704;2024-03-06T07:33:17;101189.69;;;24.97;45.34
250;BME280;109;19.806;-70.704;2024-03-06T07:35:57;101191.16;;;24.88;45.87
250;BME280;109;19.806;-70.704;2024-03-06T07:38:23;101187.34;;;25.05;45.48
250;BME280;109;19.806;-70.704;2024-03-06T07:40:56;101191.13;;;25.02;45.12
250;BME280;109;19.806;-70.704;2024-03-06T07:43:22;101183.91;;;25.03;45.61
250;BME280;109;19.806;-70.704;2024-03-06T07:45:55;101185.72;;;25.02;45.37
250;BME280;109;19.806;-70.704;2024-03-06T07:48:21;101180.72;;;24.96;45.32
250;BME280;109;19.806;-70.704;2024-03-06T07:50:54;101177.31;;;25.07;45.26
250;BME280;109;19.806;-70.704;2024-03-06T07:53:20;101176.56;;;25.05;45.43
250;BME280;109;19.806;-70.704;2024-03-06T07:55:53;101177.78;;;25.14;45.06
250;BME280;109;19.806;-70.704;2024-03-06T07:58:19;101170.38;;;25.17;45.02
250;BME280;109;19.806;-70.704;2024-03-06T08:00:53;101178.56;;;25.16;45.07
250;BME280;109;19.806;-70.704;2024-03-06T08:03:22;101174.19;;;25.27;44.74
250;BME280;109;19.806;-70.704;2024-03-06T08:05:55;101171.66;;;25.24;44.09
250;BME280;109;19.806;-70.704;2024-03-06T08:08:22;101166.75;;;25.04;44.96
250;BME280;109;19.806;-70.704;2024-03-06T08:10:56;101179.50;;;25.15;44.68
250;BME280;109;19.806;-70.704;2024-03-06T08:13:23;101171.38;;;25.02;44.90
250;BME280;109;19.806;-70.704;2024-03-06T08:15:56;101173.22;;;25.01;44.45
250;BME280;109;19.806;-70.704;2024-03-06T08:18:22;101178.41;;;25.04;44.69
250;BME280;109;19.806;-70.704;2024-03-06T08:20:55;101180.69;;;25.10;44.71
250;BME280;109;19.806;-70.704;2024-03-06T08:23:21;101176.16;;;25.11;44.52
250;BME280;109;19.806;-70.704;2024-03-06T08:25:55;101181.50;;;24.98;44.88
250;BME280;109;19.806;-70.704;2024-03-06T08:28:22;101182.50;;;25.10;44.91
250;BME280;109;19.806;-70.704;2024-03-06T08:30:54;101188.88;;;25.09;44.27
250;BME280;109;19.806;-70.704;2024-03-06T08:33:20;101182.00;;;25.18;44.63
250;BME280;109;19.806;-70.704;2024-03-06T08:36:01;101170.28;;;24.92;44.50
250;BME280;109;19.806;-70.704;2024-03-06T08:38:34;101178.03;;;24.96;44.52
250;BME280;109;19.806;-70.704;2024-03-06T08:41:00;101181.78;;;24.94;44.68
250;BME280;109;19.806;-70.704;2024-03-06T08:43:33;101182.47;;;24.97;44.25
250;BME280;109;19.806;-70.704;2024-03-06T08:45:59;101173.34;;;24.86;44.85
250;BME280;109;19.806;-70.704;2024-03-06T08:48:32;101178.91;;;24.97;44.29
250;BME280;109;19.806;-70.704;2024-03-06T08:50:58;101183.41;;;24.96;44.49
250;BME280;109;19.806;-70.704;2024-03-06T08:53:31;101191.59;;;24.95;44.52
250;BME280;109;19.806;-70.704;2024-03-06T08:55:57;101179.13;;;24.80;44.64
250;BME280;109;19.806;-70.704;2024-03-06T08:58:30;101183.69;;;24.51;44.67
250;BME280;109;19.806;-70.704;2024-03-06T09:00:56;101183.69;;;24.79;44.28
250;BME280;109;19.806;-70.704;2024-03-06T09:03:31;101180.56;;;24.85;44.22
250;BME280;109;19.806;-70.704;2024-03-06T09:05:58;101178.94;;;24.83;44.08
250;BME280;109;19.806;-70.704;2024-03-06T09:08:32;101175.78;;;24.76;44.40
250;BME280;109;19.806;-70.704;2024-03-06T09:10:59;101181.25;;;24.74;43.90
250;BME280;109;19.806;-70.704;2024-03-06T09:13:31;101181.63;;;24.68;44.61
250;BME280;109;19.806;-70.704;2024-03-06T09:15:58;101177.72;;;25.01;43.92
250;BME280;109;19.806;-70.704;2024-03-06T09:18:31;101176.25;;;24.83;43.83
250;BME280;109;19.806;-70.704;2024-03-06T09:20:58;101179.34;;;24.77;43.98
250;BME280;109;19.806;-70.704;2024-03-06T09:23:30;101177.44;;;24.79;44.06
250;BME280;109;19.806;-70.704;2024-03-06T09:25:58;101175.69;;;24.78;44.49
250;BME280;109;19.806;-70.704;2024-03-06T09:28:31;101191.63;;;24.81;44.20
250;BME280;109;19.806;-70.704;2024-03-06T09:30:58;101185.00;;;24.72;43.97
250;BME280;109;19.806;-70.704;2024-03-06T09:33:30;101184.13;;;24.86;44.09
250;BME280;109;19.806;-70.704;2024-03-06T09:36:11;101188.75;;;24.84;43.87
250;BME280;109;19.806;-70.704;2024-03-06T09:38:41;101187.59;;;24.73;43.85
250;BME280;109;19.806;-70.704;2024-03-06T09:41:13;101196.53;;;24.74;43.52
250;BME280;109;19.806;-70.704;2024-03-06T09:43:40;101191.09;;;24.47;44.33
250;BME280;109;19.806;-70.704;2024-03-06T09:46:15;101187.63;;;24.59;44.20
250;BME280;109;19.806;-70.704;2024-03-06T09:48:47;101186.66;;;24.60;44.11
250;BME280;109;19.806;-70.704;2024-03-06T09:51:21;101194.91;;;24.71;43.83
250;BME280;109;19.806;-70.704;2024-03-06T09:53:49;101194.38;;;24.52;43.90
250;BME280;109;19.806;-70.704;2024-03-06T09:56:23;101194.94;;;24.43;44.12
250;BME280;109;19.806;-70.704;2024-03-06T09:58:50;101193.81;;;24.33;44.18
250;BME280;109;19.806;-70.704;2024-03-06T10:01:25;101204.94;;;24.41;44.29
250;BME280;109;19.806;-70.704;2024-03-06T10:03:53;101204.56;;;24.47;44.25
250;BME280;109;19.806;-70.704;2024-03-06T10:06:26;101211.22;;;24.27;44.18
250;BME280;109;19.806;-70.704;2024-03-06T10:08:53;101204.34;;;24.22;44.64
250;BME280;109;19.806;-70.704;2024-03-06T10:11:25;101206.31;;;24.34;44.48
250;BME280;109;19.806;-70.704;2024-03-06T10:13:52;101212.75;;;24.31;44.80
250;BME280;109;19.806;-70.704;2024-03-06T10:16:25;101213.34;;;24.36;44.48
250;BME280;109;19.806;-70.704;2024-03-06T10:18:52;101216.63;;;24.27;44.61
250;BME280;109;19.806;-70.704;2024-03-06T10:21:33;101218.91;;;24.48;44.15
250;BME280;109;19.806;-70.704;2024-03-06T10:24:06;101228.63;;;24.36;44.35
250;BME280;109;19.806;-70.704;2024-03-06T10:26:33;101227.84;;;24.34;44.03
250;BME280;109;19.806;-70.704;2024-03-06T10:29:05;101235.84;;;24.35;43.87
250;BME280;109;19.806;-70.704;2024-03-06T10:31:31;101233.13;;;24.64;43.72
250;BME280;109;19.806;-70.704;2024-03-06T10:34:11;101236.13;;;24.59;43.56
250;BME280;109;19.806;-70.704;2024-03-06T10:36:44;101237.16;;;24.42;43.36
250;BME280;109;19.806;-70.704;2024-03-06T10:39:14;101239.75;;;24.30;43.26
250;BME280;109;19.806;-70.704;2024-03-06T10:41:52;101244.09;;;24.47;43.27
250;BME280;109;19.806;-70.704;2024-03-06T10:44:27;101252.78;;;24.52;43.14
250;BME280;109;19.806;-70.704;2024-03-06T10:47:05;101259.03;;;24.38;43.00
250;BME280;109;19.806;-70.704;2024-03-06T10:49:38;101263.22;;;24.28;43.14
250;BME280;109;19.806;-70.704;2024-03-06T10:52:15;101263.03;;;24.31;42.93
250;BME280;109;19.806;-70.704;2024-03-06T10:54:44;101273.63;;;24.34;43.03
250;BME280;109;19.806;-70.704;2024-03-06T10:57:19;101273.53;;;24.50;42.44
250;BME280;109;19.806;-70.704;2024-03-06T10:59:46;101283.06;;;24.55;42.45
250;BME280;109;19.806;-70.704;2024-03-06T11:02:13;101281.53;;;24.51;42.36
250;BME280;109;19.806;-70.704;2024-03-06T11:04:39;101283.34;;;24.51;42.13
250;BME280;109;19.806;-70.704;2024-03-06T11:07:06;101287.47;;;24.56;42.47
250;BME280;109;19.806;-70.704;2024-03-06T11:09:36;101292.06;;;24.26;42.76
250;BME280;109;19.806;-70.704;2024-03-06T11:12:06;101297.69;;;24.37;42.97
250;BME280;109;19.806;-70.704;2024-03-06T11:14:36;101300.19;;;24.40;43.14
250;BME280;109;19.806;-70.704;2024-03-06T11:17:08;101303.97;;;24.22;43.50
250;BME280;109;19.806;-70.704;2024-03-06T11:28:22;101318.06;;;24.55;43.57
250;BME280;109;19.806;-70.704;2024-03-06T11:33:42;101321.72;;;24.68;43.40
250;BME280;109;19.806;-70.704;2024-03-06T11:41:22;101336.59;;;24.90;42.90
250;BME280;109;19.806;-70.704;2024-03-06T11:43:49;101342.72;;;24.63;43.07
250;BME280;109;19.806;-70.704;2024-03-06T11:46:20;101343.88;;;24.59;43.22
250;BME280;109;19.806;-70.704;2024-03-06T11:48:54;101353.66;;;24.46;43.34
250;BME280;109;19.806;-70.704;2024-03-06T11:51:23;101358.75;;;24.36;43.99
250;BME280;109;19.806;-70.704;2024-03-06T11:53:52;101367.25;;;24.59;44.02
250;BME280;109;19.806;-70.704;2024-03-06T11:56:20;101368.41;;;24.69;43.67
250;BME280;109;19.806;-70.704;2024-03-06T11:58:47;101379.97;;;24.71;43.39
250;BME280;109;19.806;-70.704;2024-03-06T12:01:14;101373.38;;;25.05;43.02
250;BME280;109;19.806;-70.704;2024-03-06T12:03:41;101377.72;;;24.79;42.89
250;BME280;109;19.806;-70.704;2024-03-06T12:06:09;101373.75;;;24.85;42.83
250;BME280;109;19.806;-70.704;2024-03-06T12:08:35;101381.25;;;25.08;42.79
250;BME280;109;19.806;-70.704;2024-03-06T12:11:05;101379.50;;;25.07;42.77
250;BME280;109;19.806;-70.704;2024-03-06T12:13:32;101372.59;;;25.31;42.54
250;BME280;109;19.806;-70.704;2024-03-06T12:15:58;101384.13;;;25.33;42.54
250;BME280;109;19.806;-70.704;2024-03-06T12:18:24;101382.03;;;25.38;42.42
250;BME280;109;19.806;-70.704;2024-03-06T12:20:51;101391.31;;;25.61;42.18
250;BME280;109;19.806;-70.704;2024-03-06T12:23:23;101393.03;;;25.62;42.14
250;BME280;109;19.806;-70.704;2024-03-06T12:26:08;101390.81;;;25.83;42.17
250;BME280;109;19.806;-70.704;2024-03-06T12:28:38;101401.31;;;26.00;41.67
250;BME280;109;19.806;-70.704;2024-03-06T12:31:06;101400.69;;;26.09;41.50
250;BME280;109;19.806;-70.704;2024-03-06T12:33:34;101403.38;;;26.09;41.67
250;BME280;109;19.806;-70.704;2024-03-06T12:36:05;101398.19;;;25.94;42.28
250;BME280;109;19.806;-70.704;2024-03-06T12:38:32;101410.22;;;26.15;42.03
250;BME280;109;19.806;-70.704;2024-03-06T12:41:00;101409.56;;;26.51;42.07
250;BME280;109;19.806;-70.704;2024-03-06T12:43:26;101414.97;;;26.51;40.81
250;BME280;109;19.806;-70.704;2024-03-06T12:45:55;101418.22;;;26.43;41.27
250;BME280;109;19.806;-70.704;2024-03-06T12:48:23;101419.81;;;26.73;40.95
250;BME280;109;19.806;-70.704;2024-03-06T12:50:55;101417.00;;;26.87;40.94
250;BME280;109;19.806;-70.704;2024-03-06T12:53:22;101424.44;;;27.09;41.00
250;BME280;109;19.806;-70.704;2024-03-06T12:55:48;101424.50;;;26.57;40.57
250;BME280;109;19.806;-70.704;2024-03-06T12:58:15;101425.84;;;26.89;40.68
250;BME280;109;19.806;-70.704;2024-03-06T13:00:42;101425.63;;;27.05;41.38
250;BME280;109;19.806;-70.704;2024-03-06T13:03:08;101433.34;;;27.24;41.05
250;BME280;109;19.806;-70.704;2024-03-06T13:05:36;101429.97;;;26.82;41.01
250;BME280;109;19.806;-70.704;2024-03-06T13:08:03;101438.38;;;27.41;40.37
250;BME280;109;19.806;-70.704;2024-03-06T13:10:29;101436.22;;;27.33;40.65
250;BME280;109;19.806;-70.704;2024-03-06T13:12:55;101438.22;;;27.68;40.26
250;BME280;109;19.806;-70.704;2024-03-06T13:15:22;101437.47;;;27.66;40.92
250;BME280;109;19.806;-70.704;2024-03-06T13:17:48;101435.56;;;27.79;41.01
250;BME280;109;19.806;-70.704;2024-03-06T13:20:15;101436.69;;;27.76;40.62
250;BME280;109;19.806;-70.704;2024-03-06T13:22:41;101449.16;;;27.66;40.90
250;BME280;109;19.806;-70.704;2024-03-06T13:25:10;101445.63;;;27.40;41.42
250;BME280;109;19.806;-70.704;2024-03-06T13:27:36;101455.97;;;27.72;41.57
250;BME280;109;19.806;-70.704;2024-03-06T13:30:03;101449.16;;;28.03;41.46
250;BME280;109;19.806;-70.704;2024-03-06T13:32:31;101443.81;;;28.14;40.71
250;BME280;109;19.806;-70.704;2024-03-06T13:34:57;101446.34;;;28.28;40.62
250;BME280;109;19.806;-70.704;2024-03-06T13:37:23;101446.75;;;27.74;41.29
250;BME280;109;19.806;-70.704;2024-03-06T13:39:50;101442.06;;;27.89;41.24